Columbia Gorge Regional the Dalles Municipal Airport The Dalles US
ICAO: KDLS
IATA: DLS
Category: Medium
Scheduled Services: No

Elevation: 247 ft
TransAlt. 18000 ft.

Airport Communications:
ASOS:135.175
SEATTLE CNTR:119.65
SEATTLE RDO:122.65
CTAF/UNICOM:123

KDLS Zoom In..

Runways:

(A) RW 07 length 4647 ft width 100 ft
---- / hdg 69

(B) RW 13 length 5097 ft width 100 ft
---- / hdg 126

(C) RW 25 length 4647 ft width 100 ft
ILS 109.35 / hdg 249

(D) RW 31 length 5097 ft width 100 ft
---- / hdg 306

Location; KDLS
Day. 25 / Time. 12.53 Zulu
* Altimeter: 30.03
* Temperature: 04° c. 39.2°f.
* Wind from: 150° Speed 04 kn.
Dewpoint: 01° c.
Visibility: 10 Statute Miles.
Clouds: Clear (automated report).

KDLS 251253Z AUTO 15004KT 10SM CLR 04/01 A3003 RMK AO2 SLP171 T00390011

Going to: --> -->


Wind From 150°
Speed 04 kn.

 
 
jpsmedia worldairports.se 2020   terms of use